createdAt,value
2018-05-23T00:02:02.253Z,16.36
2018-05-23T00:04:29.967Z,16.22
2018-05-23T00:06:56.753Z,16.37
2018-05-23T00:09:23.661Z,16.24
2018-05-23T00:11:52.239Z,16.15
2018-05-23T00:14:19.026Z,16.07
2018-05-23T00:16:46.035Z,15.83
2018-05-23T00:19:12.686Z,15.90
2018-05-23T00:21:39.366Z,16.19
2018-05-23T00:24:06.014Z,16.12
2018-05-23T00:26:32.593Z,16.00
2018-05-23T00:28:59.443Z,15.86
2018-05-23T00:31:26.400Z,16.11
2018-05-23T00:33:57.880Z,16.22
2018-05-23T00:36:24.462Z,16.17
2018-05-23T00:38:51.090Z,16.04
2018-05-23T00:41:18.730Z,15.92
2018-05-23T00:43:46.630Z,16.29
2018-05-23T00:46:13.246Z,16.22
2018-05-23T00:48:40.714Z,16.12
2018-05-23T00:51:07.308Z,16.40
2018-05-23T00:53:34.276Z,16.48
2018-05-23T00:56:01.230Z,16.52
2018-05-23T00:58:27.819Z,16.37
2018-05-23T01:00:54.470Z,16.38
2018-05-23T01:03:21.273Z,16.32
2018-05-23T01:05:47.893Z,16.03
2018-05-23T01:08:14.635Z,15.96
2018-05-23T01:10:41.326Z,16.22
2018-05-23T01:13:08.264Z,15.59
2018-05-23T01:15:35.554Z,15.70
2018-05-23T01:18:02.286Z,15.76
2018-05-23T01:20:28.886Z,15.60
2018-05-23T01:23:00.189Z,15.64
2018-05-23T01:25:26.886Z,15.82
2018-05-23T01:27:53.533Z,15.78
2018-05-23T01:30:20.100Z,15.67
2018-05-23T01:32:53.794Z,16.28
2018-05-23T01:35:21.015Z,16.11
2018-05-23T01:37:47.645Z,16.33
2018-05-23T01:40:14.394Z,16.11
2018-05-23T01:42:51.750Z,16.19
2018-05-23T01:45:18.315Z,16.20
2018-05-23T01:47:44.956Z,16.12
2018-05-23T01:50:11.569Z,16.42
2018-05-23T01:52:48.362Z,15.90
2018-05-23T01:55:15.024Z,15.92
2018-05-23T01:57:41.584Z,15.98
2018-05-23T02:00:08.441Z,15.89
2018-05-23T02:02:38.709Z,15.77
2018-05-23T02:05:05.363Z,15.79
2018-05-23T02:07:31.975Z,15.88
2018-05-23T02:09:58.883Z,15.98
2018-05-23T02:12:26.742Z,16.14
2018-05-23T02:14:53.443Z,16.27
2018-05-23T02:17:20.101Z,16.31
2018-05-23T02:19:46.701Z,16.31
2018-05-23T02:22:21.371Z,16.27
2018-05-23T02:24:48.064Z,16.02
2018-05-23T02:27:14.713Z,15.89
2018-05-23T02:29:41.423Z,16.00
2018-05-23T02:32:13.278Z,16.15
2018-05-23T02:34:39.927Z,15.89
2018-05-23T02:37:06.794Z,16.11
2018-05-23T02:39:33.410Z,16.28
2018-05-23T02:41:59.909Z,16.23
2018-05-23T02:44:26.989Z,16.07
2018-05-23T02:46:53.635Z,16.32
2018-05-23T02:49:20.289Z,16.09
2018-05-23T02:51:46.948Z,16.09
2018-05-23T02:54:14.750Z,16.13
2018-05-23T02:56:41.466Z,16.20
2018-05-23T02:59:08.053Z,16.26
2018-05-23T03:01:34.758Z,15.92
2018-05-23T03:04:02.541Z,15.81
2018-05-23T03:06:29.187Z,15.94
2018-05-23T03:08:55.823Z,15.77
2018-05-23T03:11:22.366Z,15.77
2018-05-23T03:13:59.509Z,15.93
2018-05-23T03:16:26.042Z,16.22
2018-05-23T03:18:52.756Z,16.41
2018-05-23T03:21:19.438Z,16.33
2018-05-23T03:23:51.681Z,16.57
2018-05-23T03:26:18.331Z,16.24
2018-05-23T03:28:45.013Z,16.55
2018-05-23T03:31:11.621Z,16.41
2018-05-23T03:33:42.288Z,16.63
2018-05-23T03:36:08.951Z,16.63
2018-05-23T03:38:35.425Z,16.33
2018-05-23T03:41:02.026Z,16.27
2018-05-23T03:43:33.608Z,16.40
2018-05-23T03:46:00.328Z,16.29
2018-05-23T03:48:27.085Z,16.56
2018-05-23T03:50:53.616Z,16.63
2018-05-23T03:53:44.285Z,16.71
2018-05-23T03:56:11.242Z,16.85
2018-05-23T03:58:37.897Z,16.95
2018-05-23T04:01:16.420Z,17.11
2018-05-23T04:03:58.601Z,17.45
2018-05-23T04:06:33.812Z,17.38
2018-05-23T04:09:00.486Z,17.66
2018-05-23T04:11:27.052Z,17.79
2018-05-23T04:14:03.704Z,17.91
2018-05-23T04:16:30.313Z,18.01
2018-05-23T04:18:56.974Z,17.98
2018-05-23T04:21:23.421Z,18.18
2018-05-23T04:23:57.010Z,18.28
2018-05-23T04:26:23.673Z,18.28
2018-05-23T04:28:50.392Z,18.30
2018-05-23T04:31:16.999Z,18.35
2018-05-23T04:33:54.693Z,18.40
2018-05-23T04:36:21.466Z,18.22
2018-05-23T04:38:48.122Z,18.03
2018-05-23T04:41:14.733Z,18.01
2018-05-23T04:43:45.836Z,18.08
2018-05-23T04:46:12.513Z,18.31
2018-05-23T04:48:39.283Z,18.01
2018-05-23T04:51:06.004Z,17.89
2018-05-23T04:53:36.979Z,18.18
2018-05-23T04:56:03.530Z,18.08
2018-05-23T04:58:30.097Z,18.20
2018-05-23T05:00:57.054Z,18.42
2018-05-23T05:03:29.814Z,18.70
2018-05-23T05:05:56.705Z,18.92
2018-05-23T05:11:16.653Z,19.25
2018-05-23T05:13:47.089Z,19.35
2018-05-23T05:16:13.608Z,19.32
2018-05-23T05:18:40.145Z,19.54
2018-05-23T05:21:06.796Z,20.50
2018-05-23T05:23:37.448Z,20.09
2018-05-23T05:26:04.391Z,19.95
2018-05-23T05:28:31.073Z,19.90
2018-05-23T05:30:57.829Z,20.39
2018-05-23T05:33:25.518Z,20.64
2018-05-23T05:35:52.261Z,20.58
2018-05-23T05:38:18.955Z,20.75
2018-05-23T05:40:45.704Z,20.90
2018-05-23T05:43:13.481Z,20.98
2018-05-23T05:45:40.975Z,21.02
2018-05-23T05:48:07.644Z,21.48
2018-05-23T05:50:34.189Z,21.57
2018-05-23T05:53:05.873Z,21.35
2018-05-23T05:55:32.613Z,21.19
2018-05-23T05:57:59.621Z,21.34
2018-05-23T06:00:26.268Z,21.48
2018-05-23T06:03:03.685Z,21.65
2018-05-23T06:05:30.224Z,21.75
2018-05-23T06:07:56.697Z,22.05
2018-05-23T06:10:23.394Z,21.89
2018-05-23T06:12:55.621Z,21.82
2018-05-23T06:15:22.443Z,21.71
2018-05-23T06:17:49.270Z,22.38
2018-05-23T06:20:15.916Z,22.54
2018-05-23T06:22:43.737Z,22.45
2018-05-23T06:25:10.243Z,22.46
2018-05-23T06:27:36.977Z,22.28
2018-05-23T06:30:03.546Z,22.75
2018-05-23T06:32:30.758Z,22.52
2018-05-23T06:34:57.641Z,22.50
2018-05-23T06:37:24.224Z,22.67
2018-05-23T06:39:50.939Z,22.51
2018-05-23T06:42:17.853Z,22.60
2018-05-23T06:44:44.521Z,22.46
2018-05-23T06:47:11.525Z,23.16
2018-05-23T06:49:38.189Z,23.02
2018-05-23T06:52:08.198Z,23.14
2018-05-23T06:54:34.995Z,23.13
2018-05-23T06:57:02.795Z,23.62
2018-05-23T06:59:29.652Z,23.44
2018-05-23T07:01:59.781Z,23.53
2018-05-23T07:04:26.365Z,23.65
2018-05-23T07:06:52.908Z,23.86
2018-05-23T07:09:19.573Z,23.68
2018-05-23T07:11:50.485Z,24.06
2018-05-23T07:14:17.135Z,24.08
2018-05-23T07:16:43.764Z,23.63
2018-05-23T07:19:10.252Z,23.99
2018-05-23T07:21:36.901Z,23.99
2018-05-23T07:24:03.749Z,23.53
2018-05-23T07:26:30.342Z,23.75
2018-05-23T07:28:57.941Z,23.60
2018-05-23T07:31:28.903Z,23.55
2018-05-23T07:33:55.615Z,24.28
2018-05-23T07:36:22.325Z,24.40
2018-05-23T07:38:48.989Z,24.46
2018-05-23T07:41:15.672Z,24.57
2018-05-23T07:43:42.563Z,24.64
2018-05-23T07:46:09.188Z,24.80
2018-05-23T07:48:35.818Z,24.57
2018-05-23T07:51:02.631Z,23.94
2018-05-23T07:53:30.526Z,24.53
2018-05-23T07:55:57.085Z,25.15
2018-05-23T07:58:23.730Z,24.85
2018-05-23T08:00:50.314Z,25.02
2018-05-23T08:03:20.105Z,24.61
2018-05-23T08:05:46.756Z,23.93
2018-05-23T08:08:13.595Z,24.37
2018-05-23T08:10:40.723Z,24.61
2018-05-23T08:13:08.702Z,24.71
2018-05-23T08:15:35.643Z,24.78
2018-05-23T08:18:02.264Z,25.02
2018-05-23T08:20:29.009Z,25.17
2018-05-23T08:23:06.140Z,25.08
2018-05-23T08:25:33.153Z,24.95
2018-05-23T08:27:59.785Z,25.28
2018-05-23T08:30:26.366Z,25.89
2018-05-23T08:32:53.168Z,25.30
2018-05-23T08:35:19.838Z,25.04
2018-05-23T08:37:46.338Z,25.61
2018-05-23T08:40:13.317Z,24.96
2018-05-23T08:42:45.193Z,25.04
2018-05-23T08:45:11.920Z,25.73
2018-05-23T08:47:38.679Z,25.54
2018-05-23T08:50:05.349Z,25.48
2018-05-23T08:52:33.132Z,25.79
2018-05-23T08:54:59.765Z,25.29
2018-05-23T08:57:26.371Z,25.37
2018-05-23T08:59:52.857Z,25.32
2018-05-23T09:02:19.894Z,25.77
2018-05-23T09:04:46.525Z,25.38
2018-05-23T09:07:13.218Z,25.18
2018-05-23T09:09:39.713Z,25.36
2018-05-23T09:12:07.672Z,25.34
2018-05-23T09:14:34.450Z,25.03
2018-05-23T09:17:01.098Z,25.63
2018-05-23T09:19:27.848Z,25.76
2018-05-23T09:21:55.750Z,26.32
2018-05-23T09:24:22.706Z,26.28
2018-05-23T09:26:52.565Z,25.87
2018-05-23T09:29:19.617Z,26.68
2018-05-23T09:31:46.525Z,26.85
2018-05-23T09:34:13.514Z,27.24
2018-05-23T09:36:40.236Z,26.98
2018-05-23T09:39:07.497Z,26.91
2018-05-23T09:41:34.609Z,27.25
2018-05-23T09:44:01.710Z,27.29
2018-05-23T09:46:28.245Z,26.57
2018-05-23T09:48:54.816Z,27.40
2018-05-23T09:51:26.174Z,27.62
2018-05-23T09:53:52.961Z,27.84
2018-05-23T09:56:19.683Z,27.57
2018-05-23T09:58:46.560Z,27.32
2018-05-23T10:01:20.840Z,27.27
2018-05-23T10:03:47.598Z,27.86
2018-05-23T10:06:14.376Z,27.24
2018-05-23T10:08:41.010Z,28.26
2018-05-23T10:11:21.919Z,28.00
2018-05-23T10:13:48.709Z,27.70
2018-05-23T10:16:15.441Z,28.59
2018-05-23T10:18:42.094Z,28.98
2018-05-23T10:21:12.639Z,29.49
2018-05-23T10:23:39.565Z,29.22
2018-05-23T10:26:06.194Z,29.60
2018-05-23T10:28:32.903Z,29.11
2018-05-23T10:31:03.605Z,29.50
2018-05-23T10:33:30.406Z,29.79
2018-05-23T10:35:57.082Z,29.87
2018-05-23T10:38:24.313Z,30.04
2018-05-23T10:40:51.175Z,30.39
2018-05-23T10:43:17.981Z,29.11
2018-05-23T10:45:45.247Z,28.32
2018-05-23T10:48:12.093Z,28.19
2018-05-23T10:50:38.751Z,29.08
2018-05-23T10:53:15.710Z,30.25
2018-05-23T10:55:42.649Z,30.01
2018-05-23T10:58:09.363Z,29.43
2018-05-23T11:00:36.080Z,29.39
2018-05-23T11:03:06.689Z,29.04
2018-05-23T11:05:33.343Z,29.25
2018-05-23T11:07:59.962Z,29.37
2018-05-23T11:10:27.099Z,30.05
2018-05-23T11:13:00.294Z,29.67
2018-05-23T11:15:26.858Z,29.49
2018-05-23T11:17:53.372Z,29.58
2018-05-23T11:20:20.038Z,30.38
2018-05-23T11:22:50.720Z,29.28
2018-05-23T11:25:17.346Z,30.31
2018-05-23T11:27:44.262Z,29.94
2018-05-23T11:30:10.838Z,29.78
2018-05-23T11:32:38.571Z,29.73
2018-05-23T11:35:05.153Z,29.90
2018-05-23T11:37:32.001Z,29.57
2018-05-23T11:39:58.907Z,30.36
2018-05-23T11:42:30.246Z,29.84
2018-05-23T11:44:56.879Z,30.94
2018-05-23T11:47:23.878Z,29.94
2018-05-23T11:49:51.018Z,29.62
2018-05-23T11:52:21.557Z,29.98
2018-05-23T11:54:48.798Z,30.95
2018-05-23T11:57:15.460Z,29.38
2018-05-23T11:59:42.107Z,29.52
2018-05-23T12:02:13.110Z,28.28
2018-05-23T12:04:39.704Z,28.36
2018-05-23T12:07:06.788Z,29.01
2018-05-23T12:09:33.433Z,29.71
2018-05-23T12:12:07.347Z,29.25
2018-05-23T12:14:34.052Z,28.83
2018-05-23T12:17:00.768Z,29.52
2018-05-23T12:19:27.482Z,28.64
2018-05-23T12:21:54.365Z,28.97
2018-05-23T12:24:21.376Z,29.66
2018-05-23T12:26:48.106Z,30.14
2018-05-23T12:29:15.006Z,30.20
2018-05-23T12:31:42.705Z,30.63
2018-05-23T12:34:09.405Z,30.16
2018-05-23T12:36:36.199Z,31.37
2018-05-23T12:39:02.906Z,30.42
2018-05-23T12:41:30.762Z,30.82
2018-05-23T12:43:57.489Z,32.01
2018-05-23T12:46:24.188Z,30.82
2018-05-23T12:48:50.833Z,31.31
2018-05-23T12:51:17.453Z,30.28
2018-05-23T12:53:44.073Z,29.66
2018-05-23T12:56:10.715Z,27.80
2018-05-23T12:58:37.276Z,28.61
2018-05-23T13:01:04.892Z,28.70
2018-05-23T13:03:31.569Z,29.19
2018-05-23T13:05:58.157Z,28.34
2018-05-23T13:08:24.688Z,28.71
2018-05-23T13:10:56.332Z,29.07
2018-05-23T13:13:22.942Z,27.39
2018-05-23T13:15:49.615Z,28.36
2018-05-23T13:18:16.277Z,27.79
2018-05-23T13:20:44.151Z,29.09
2018-05-23T13:23:10.868Z,29.12
2018-05-23T13:25:37.506Z,28.93
2018-05-23T13:28:04.018Z,27.60
2018-05-23T13:30:33.822Z,27.93
2018-05-23T13:33:00.392Z,28.34
2018-05-23T13:35:27.369Z,28.72
2018-05-23T13:37:54.189Z,27.74
2018-05-23T13:40:20.860Z,28.55
2018-05-23T13:42:47.981Z,28.67
2018-05-23T13:45:14.610Z,28.41
2018-05-23T13:47:41.333Z,28.64
2018-05-23T13:50:07.958Z,28.68
2018-05-23T13:52:40.584Z,28.30
2018-05-23T13:55:07.226Z,28.15
2018-05-23T13:57:34.010Z,29.05
2018-05-23T14:00:00.837Z,28.84
2018-05-23T14:02:33.644Z,27.68
2018-05-23T14:05:00.320Z,28.69
2018-05-23T14:07:27.066Z,29.79
2018-05-23T14:09:53.722Z,29.09
2018-05-23T14:12:27.692Z,28.80
2018-05-23T14:14:54.388Z,27.73
2018-05-23T14:17:21.010Z,27.70
2018-05-23T14:19:47.717Z,28.31
2018-05-23T14:22:15.436Z,28.00
2018-05-23T14:24:42.435Z,28.24
2018-05-23T14:27:09.121Z,28.33
2018-05-23T14:29:35.833Z,28.28
2018-05-23T14:32:06.040Z,28.03
2018-05-23T14:34:32.551Z,29.26
2018-05-23T14:36:59.217Z,27.83
2018-05-23T14:39:25.771Z,28.27
2018-05-23T14:41:53.579Z,28.21
2018-05-23T14:44:20.374Z,27.37
2018-05-23T14:46:47.289Z,27.89
2018-05-23T14:49:13.999Z,27.09
2018-05-23T14:51:48.058Z,27.50
2018-05-23T14:54:14.724Z,28.17
2018-05-23T14:56:41.450Z,27.11
2018-05-23T14:59:08.390Z,27.60
2018-05-23T15:01:38.216Z,27.67
2018-05-23T15:04:05.088Z,27.39
2018-05-23T15:06:31.702Z,27.73
2018-05-23T15:08:58.377Z,29.02
2018-05-23T15:11:26.053Z,29.32
2018-05-23T15:13:52.691Z,27.36
2018-05-23T15:16:19.409Z,26.70
2018-05-23T15:18:46.122Z,26.93
2018-05-23T15:21:16.338Z,26.85
2018-05-23T15:23:43.010Z,27.51
2018-05-23T15:26:10.286Z,26.41
2018-05-23T15:28:36.936Z,26.98
2018-05-23T15:31:04.055Z,25.45
2018-05-23T15:33:30.882Z,25.37
2018-05-23T15:35:57.941Z,25.66
2018-05-23T15:38:24.494Z,27.07
2018-05-23T15:40:51.282Z,27.41
2018-05-23T15:43:18.108Z,26.93
2018-05-23T15:45:44.673Z,25.89
2018-05-23T15:48:11.306Z,25.69
2018-05-23T15:50:39.103Z,26.28
2018-05-23T15:53:05.794Z,26.38
2018-05-23T15:55:32.553Z,26.44
2018-05-23T15:57:59.938Z,25.46
2018-05-23T16:00:30.465Z,26.66
2018-05-23T16:02:57.228Z,26.20
2018-05-23T16:05:24.110Z,25.13
2018-05-23T16:07:50.786Z,24.94
2018-05-23T16:10:19.030Z,27.25
2018-05-23T16:12:45.615Z,29.05
2018-05-23T16:15:12.649Z,29.24
2018-05-23T16:17:39.332Z,28.55
2018-05-23T16:20:09.055Z,28.21
2018-05-23T16:22:35.625Z,27.16
2018-05-23T16:25:02.145Z,28.12
2018-05-23T16:27:28.807Z,25.64
2018-05-23T16:30:01.809Z,25.73
2018-05-23T16:32:28.410Z,26.03
2018-05-23T16:34:55.109Z,25.93
2018-05-23T16:37:22.073Z,26.17
2018-05-23T16:39:48.718Z,26.26
2018-05-23T16:42:15.705Z,24.83
2018-05-23T16:44:42.658Z,25.79
2018-05-23T16:47:09.209Z,24.50
2018-05-23T16:49:35.935Z,24.50
2018-05-23T16:52:03.716Z,24.14
2018-05-23T16:54:30.400Z,23.42
2018-05-23T16:56:57.049Z,23.44
2018-05-23T16:59:23.745Z,23.19
2018-05-23T17:01:55.420Z,23.09
2018-05-23T17:04:22.154Z,23.17
2018-05-23T17:06:48.785Z,23.17
2018-05-23T17:09:15.324Z,22.78
2018-05-23T17:11:45.475Z,22.66
2018-05-23T17:14:12.202Z,22.52
2018-05-23T17:16:38.722Z,22.52
2018-05-23T17:19:05.443Z,22.26
2018-05-23T17:21:35.906Z,22.46
2018-05-23T17:24:02.737Z,22.22
2018-05-23T17:26:29.694Z,22.22
2018-05-23T17:28:56.346Z,22.25
2018-05-23T17:31:23.031Z,22.09
2018-05-23T17:33:49.761Z,21.81
2018-05-23T17:36:16.450Z,21.83
2018-05-23T17:38:43.086Z,21.84
2018-05-23T17:41:10.906Z,21.68
2018-05-23T17:43:37.558Z,21.81
2018-05-23T17:46:04.227Z,21.82
2018-05-23T17:48:30.826Z,21.82
2018-05-23T17:51:00.896Z,21.48
2018-05-23T17:53:27.885Z,21.54
2018-05-23T17:55:54.566Z,21.29
2018-05-23T17:58:21.278Z,21.79
2018-05-23T18:00:49.207Z,21.79
2018-05-23T18:03:15.705Z,21.97
2018-05-23T18:05:42.376Z,22.66
2018-05-23T18:08:09.158Z,21.71
2018-05-23T18:10:39.318Z,21.84
2018-05-23T18:13:05.925Z,21.52
2018-05-23T18:15:32.953Z,21.41
2018-05-23T18:18:00.729Z,21.79
2018-05-23T18:20:28.655Z,21.67
2018-05-23T18:22:55.587Z,21.43
2018-05-23T18:25:22.539Z,21.96
2018-05-23T18:27:49.270Z,22.50
2018-05-23T18:30:15.790Z,22.81
2018-05-23T18:32:42.972Z,22.72
2018-05-23T18:35:09.476Z,22.66
2018-05-23T18:37:36.170Z,22.41
2018-05-23T18:40:06.760Z,22.53
2018-05-23T18:42:33.530Z,22.77
2018-05-23T18:45:00.289Z,22.51
2018-05-23T18:47:26.843Z,22.30
2018-05-23T18:49:56.756Z,22.85
2018-05-23T18:52:23.442Z,22.48
2018-05-23T18:54:50.114Z,22.53
2018-05-23T18:57:16.822Z,22.51
2018-05-23T18:59:44.741Z,22.37
2018-05-23T19:02:11.446Z,21.24
2018-05-23T19:04:38.097Z,22.54
2018-05-23T19:07:04.767Z,22.51
2018-05-23T19:09:31.555Z,22.38
2018-05-23T19:11:58.292Z,22.50
2018-05-23T19:14:25.010Z,22.29
2018-05-23T19:16:51.834Z,22.16
2018-05-23T19:19:18.488Z,21.86
2018-05-23T19:21:45.317Z,21.81
2018-05-23T19:24:11.951Z,22.19
2018-05-23T19:26:38.662Z,22.20
2018-05-23T19:29:05.315Z,22.23
2018-05-23T19:31:35.796Z,22.06
2018-05-23T19:34:02.752Z,21.84
2018-05-23T19:36:29.464Z,20.93
2018-05-23T19:38:56.286Z,20.23
2018-05-23T19:41:24.173Z,20.04
2018-05-23T19:43:50.857Z,19.31
2018-05-23T19:46:17.697Z,19.60
2018-05-23T19:48:44.897Z,19.38
2018-05-23T19:51:15.616Z,18.93
2018-05-23T19:53:42.357Z,19.02
2018-05-23T19:56:09.633Z,19.23
2018-05-23T19:58:36.236Z,19.77
2018-05-23T20:01:06.972Z,19.48
2018-05-23T20:03:33.838Z,19.22
2018-05-23T20:06:00.548Z,19.04
2018-05-23T20:08:27.275Z,19.02
2018-05-23T20:10:55.982Z,19.15
2018-05-23T20:13:22.646Z,18.96
2018-05-23T20:15:50.090Z,19.08
2018-05-23T20:18:17.167Z,19.36
2018-05-23T20:20:43.981Z,19.29
2018-05-23T20:23:17.426Z,19.13
2018-05-23T20:25:50.297Z,19.05
2018-05-23T20:28:23.554Z,18.78
2018-05-23T20:30:59.855Z,18.75
2018-05-23T20:33:33.316Z,18.62
2018-05-23T20:36:06.575Z,18.40
2018-05-23T20:38:39.461Z,18.38
2018-05-23T20:41:14.817Z,18.16
2018-05-23T20:43:48.482Z,18.14
2018-05-23T20:46:21.226Z,18.48
2018-05-23T20:48:54.466Z,18.43
2018-05-23T20:51:31.154Z,18.15
2018-05-23T20:54:03.833Z,18.52
2018-05-23T20:56:37.443Z,18.28
2018-05-23T20:59:10.804Z,18.18
2018-05-23T21:01:44.238Z,18.36
2018-05-23T21:04:17.742Z,18.78
2018-05-23T21:06:51.059Z,18.76
2018-05-23T21:09:28.325Z,18.77
2018-05-23T21:12:02.002Z,18.77
2018-05-23T21:14:34.967Z,18.83
2018-05-23T21:17:08.430Z,19.02
2018-05-23T21:19:44.802Z,19.06
2018-05-23T21:22:17.918Z,18.95
2018-05-23T21:24:52.505Z,18.70
2018-05-23T21:27:25.806Z,18.81
2018-05-23T21:30:06.597Z,18.66
2018-05-23T21:32:39.831Z,18.48
2018-05-23T21:35:13.421Z,18.33
2018-05-23T21:37:46.311Z,18.54
2018-05-23T21:40:20.756Z,18.51
2018-05-23T21:42:54.167Z,18.60
2018-05-23T21:45:27.132Z,18.67
2018-05-23T21:48:00.157Z,18.44
2018-05-23T21:50:33.410Z,18.48
2018-05-23T21:53:06.238Z,18.42
2018-05-23T21:55:40.013Z,18.33
2018-05-23T21:58:12.626Z,18.54
2018-05-23T22:00:46.257Z,18.36
2018-05-23T22:03:19.644Z,18.43
2018-05-23T22:05:53.597Z,18.57
2018-05-23T22:08:26.825Z,18.51
2018-05-23T22:11:00.408Z,18.54
2018-05-23T22:13:33.054Z,18.56
2018-05-23T22:16:06.414Z,18.60
2018-05-23T22:18:39.862Z,18.36
2018-05-23T22:21:12.761Z,18.10
2018-05-23T22:23:45.972Z,17.98
2018-05-23T22:26:19.478Z,18.13
2018-05-23T22:28:52.157Z,17.83
2018-05-23T22:31:24.839Z,18.14
2018-05-23T22:33:57.456Z,18.51
2018-05-23T22:36:30.994Z,18.50
2018-05-23T22:39:04.572Z,18.58
2018-05-23T22:41:38.570Z,18.43
2018-05-23T22:44:11.350Z,18.52
2018-05-23T22:46:44.859Z,18.58
2018-05-23T22:49:21.904Z,18.70
2018-05-23T22:51:54.969Z,18.65
2018-05-23T22:54:28.318Z,18.72
2018-05-23T22:57:02.332Z,18.64
2018-05-23T22:59:36.196Z,18.00
2018-05-23T23:02:09.063Z,17.82
2018-05-23T23:04:42.306Z,17.99
2018-05-23T23:07:15.458Z,17.83
2018-05-23T23:09:48.898Z,17.73
2018-05-23T23:12:21.596Z,17.56
2018-05-23T23:14:54.405Z,17.77
2018-05-23T23:17:28.220Z,17.76
2018-05-23T23:20:02.503Z,17.68
2018-05-23T23:22:38.037Z,17.59
2018-05-23T23:25:11.497Z,17.38
2018-05-23T23:27:44.933Z,17.35
2018-05-23T23:30:21.404Z,17.35
2018-05-23T23:32:54.683Z,17.26
2018-05-23T23:35:28.911Z,17.49
2018-05-23T23:38:02.374Z,17.31
2018-05-23T23:40:35.692Z,17.46
2018-05-23T23:43:08.736Z,17.45
2018-05-23T23:45:42.338Z,17.46
2018-05-23T23:48:15.877Z,17.38
2018-05-23T23:50:49.357Z,17.35
2018-05-23T23:53:22.113Z,17.36
2018-05-23T23:55:55.026Z,17.39
2018-05-23T23:58:28.656Z,17.33
